createdAt,value
2019-02-06T00:02:16.555Z,14.10
2019-02-06T00:04:51.924Z,12.80
2019-02-06T00:07:22.607Z,15.68
2019-02-06T00:09:55.451Z,14.43
2019-02-06T00:12:29.825Z,14.78
2019-02-06T00:15:01.567Z,14.73
2019-02-06T00:17:33.191Z,12.58
2019-02-06T00:20:26.314Z,12.47
2019-02-06T00:22:47.394Z,14.53
2019-02-06T00:25:19.430Z,12.63
2019-02-06T00:27:50.968Z,14.93
2019-02-06T00:30:24.657Z,13.65
2019-02-06T00:32:58.856Z,13.28
2019-02-06T00:35:28.125Z,18.15
2019-02-06T00:38:05.133Z,14.38
2019-02-06T00:40:35.529Z,13.75
2019-02-06T00:43:05.928Z,13.90
2019-02-06T00:45:36.267Z,15.20
2019-02-06T00:48:07.792Z,16.10
2019-02-06T00:50:49.563Z,15.83
2019-02-06T00:53:25.920Z,13.38
2019-02-06T00:55:58.382Z,14.13
2019-02-06T00:58:29.916Z,13.62
2019-02-06T01:01:02.474Z,13.78
2019-02-06T01:03:37.080Z,11.30
2019-02-06T01:06:11.019Z,12.88
2019-02-06T01:08:46.104Z,12.70
2019-02-06T01:11:16.235Z,14.85
2019-02-06T01:13:47.715Z,12.05
2019-02-06T01:16:26.545Z,13.95
2019-02-06T01:18:55.887Z,13.40
2019-02-06T01:21:30.337Z,15.93
2019-02-06T01:24:05.912Z,12.65
2019-02-06T01:26:42.271Z,14.33
2019-02-06T01:29:14.476Z,16.35
2019-02-06T01:31:48.023Z,12.55
2019-02-06T01:34:21.397Z,10.80
2019-02-06T01:36:54.377Z,15.50
2019-02-06T01:39:34.612Z,14.50
2019-02-06T01:42:07.071Z,13.62
2019-02-06T01:44:43.736Z,14.78
2019-02-06T01:47:17.363Z,13.70
2019-02-06T01:49:49.533Z,12.47
2019-02-06T01:52:23.928Z,13.25
2019-02-06T01:54:58.898Z,12.43
2019-02-06T01:57:27.743Z,14.30
2019-02-06T01:59:58.619Z,16.97
2019-02-06T02:02:30.151Z,12.85
2019-02-06T02:05:03.859Z,14.18
2019-02-06T02:07:37.541Z,13.93
2019-02-06T02:10:12.700Z,12.73
2019-02-06T02:12:42.908Z,11.50
2019-02-06T02:15:26.330Z,14.23
2019-02-06T02:17:58.853Z,12.80
2019-02-06T02:20:30.326Z,13.60
2019-02-06T02:23:02.505Z,14.07
2019-02-06T02:25:35.141Z,16.60
2019-02-06T02:28:08.960Z,13.43
2019-02-06T02:30:44.133Z,11.48
2019-02-06T02:33:14.650Z,12.05
2019-02-06T02:35:50.704Z,13.13
2019-02-06T02:38:24.783Z,12.03
2019-02-06T02:40:57.622Z,11.80
2019-02-06T02:43:34.067Z,15.70
2019-02-06T02:46:06.637Z,12.37
2019-02-06T02:48:41.229Z,12.58
2019-02-06T02:51:13.553Z,15.68
2019-02-06T02:53:43.994Z,13.25
2019-02-06T02:56:14.230Z,14.58
2019-02-06T02:58:46.162Z,13.08
2019-02-06T03:01:32.848Z,14.05
2019-02-06T03:04:09.089Z,12.93
2019-02-06T03:06:37.940Z,12.07
2019-02-06T03:09:11.045Z,14.98
2019-02-06T03:11:41.464Z,13.55
2019-02-06T03:14:15.461Z,14.80
2019-02-06T03:16:49.115Z,11.88
2019-02-06T03:19:23.865Z,13.70
2019-02-06T03:21:55.292Z,14.33
2019-02-06T03:24:26.078Z,11.38
2019-02-06T03:26:57.822Z,14.87
2019-02-06T03:29:29.313Z,15.05
2019-02-06T03:32:00.112Z,13.60
2019-02-06T03:34:33.853Z,14.43
2019-02-06T03:37:06.512Z,12.70
2019-02-06T03:39:38.589Z,15.93
2019-02-06T03:42:11.730Z,15.70
2019-02-06T03:44:48.276Z,14.50
2019-02-06T03:47:19.014Z,14.23
2019-02-06T03:49:57.991Z,15.93
2019-02-06T03:52:31.477Z,14.00
2019-02-06T03:55:03.062Z,14.23
2019-02-06T03:57:35.446Z,10.50
2019-02-06T04:00:11.880Z,13.95
2019-02-06T04:02:43.391Z,15.85
2019-02-06T04:05:15.561Z,12.85
2019-02-06T04:07:49.971Z,13.18
2019-02-06T04:10:22.928Z,12.98
2019-02-06T04:12:57.883Z,11.18
2019-02-06T04:15:39.205Z,13.62
2019-02-06T04:18:16.229Z,15.18
2019-02-06T04:20:46.859Z,13.55
2019-02-06T04:23:19.368Z,15.43
2019-02-06T04:25:50.656Z,14.03
2019-02-06T04:28:24.062Z,14.55
2019-02-06T04:30:59.368Z,14.93
2019-02-06T04:33:30.909Z,16.10
2019-02-06T04:36:03.875Z,14.98
2019-02-06T04:38:35.713Z,13.83
2019-02-06T04:41:07.183Z,13.72
2019-02-06T04:43:42.638Z,13.50
2019-02-06T04:46:14.162Z,12.78
2019-02-06T04:48:44.556Z,12.03
2019-02-06T04:51:16.858Z,14.90
2019-02-06T04:53:47.402Z,17.25
2019-02-06T04:56:21.302Z,13.65
2019-02-06T04:58:52.752Z,12.88
2019-02-06T05:01:23.065Z,13.20
2019-02-06T05:03:53.000Z,14.05
2019-02-06T05:06:23.204Z,10.53
2019-02-06T05:08:56.042Z,13.22
2019-02-06T05:11:28.503Z,13.93
2019-02-06T05:14:01.972Z,12.75
2019-02-06T05:16:38.672Z,14.35
2019-02-06T05:19:15.934Z,11.15
2019-02-06T05:21:45.726Z,13.78
2019-02-06T05:24:14.497Z,13.53
2019-02-06T05:26:45.861Z,14.03
2019-02-06T05:29:18.780Z,11.78
2019-02-06T05:31:53.307Z,13.18
2019-02-06T05:34:23.980Z,14.23
2019-02-06T05:36:55.849Z,13.40
2019-02-06T05:39:28.293Z,13.98
2019-02-06T05:42:00.687Z,13.32
2019-02-06T05:44:32.411Z,12.07
2019-02-06T05:47:02.589Z,13.53
2019-02-06T05:49:33.971Z,11.88
2019-02-06T05:52:08.991Z,14.78
2019-02-06T05:54:39.837Z,15.80
2019-02-06T05:57:08.326Z,16.73
2019-02-06T05:59:38.647Z,14.18
2019-02-06T06:02:11.736Z,12.40
2019-02-06T06:04:48.193Z,13.98
2019-02-06T06:07:16.301Z,13.75
2019-02-06T06:09:48.421Z,13.00
2019-02-06T06:12:24.330Z,19.67
2019-02-06T06:14:54.022Z,15.78
2019-02-06T06:17:24.911Z,14.10
2019-02-06T06:19:59.184Z,14.70
2019-02-06T06:22:28.686Z,14.83
2019-02-06T06:24:58.617Z,15.85
2019-02-06T06:27:40.171Z,14.38
2019-02-06T06:30:13.975Z,16.67
2019-02-06T06:32:46.055Z,14.58
2019-02-06T06:35:16.537Z,16.17
2019-02-06T06:37:57.803Z,14.45
2019-02-06T06:40:20.659Z,19.32
2019-02-06T06:42:50.901Z,16.87
2019-02-06T06:45:20.737Z,16.77
2019-02-06T06:47:50.013Z,14.68
2019-02-06T06:50:21.286Z,17.40
2019-02-06T06:52:52.690Z,14.13
2019-02-06T06:55:27.275Z,14.65
2019-02-06T06:57:58.096Z,13.58
2019-02-06T07:00:28.842Z,12.80
2019-02-06T07:02:59.426Z,17.27
2019-02-06T07:05:30.562Z,16.02
2019-02-06T07:08:09.560Z,16.02
2019-02-06T07:11:14.619Z,13.43
2019-02-06T07:13:45.654Z,14.55
2019-02-06T07:16:55.202Z,15.08
2019-02-06T07:19:30.282Z,16.55
2019-02-06T07:22:28.308Z,15.00
2019-02-06T07:25:01.025Z,13.45
2019-02-06T07:30:49.769Z,15.83
2019-02-06T07:34:13.067Z,13.60
2019-02-06T07:36:42.892Z,16.42
2019-02-06T07:39:22.043Z,15.20
2019-02-06T07:41:51.255Z,16.30
2019-02-06T07:47:31.991Z,15.70
2019-02-06T07:50:58.495Z,13.70
2019-02-06T07:53:30.007Z,12.80
2019-02-06T07:56:32.257Z,15.73
2019-02-06T07:59:09.693Z,15.20
2019-02-06T08:04:53.835Z,16.50
2019-02-06T08:07:34.896Z,14.55
2019-02-06T08:10:06.127Z,13.63
2019-02-06T08:13:11.261Z,13.48
2019-02-06T08:15:45.165Z,15.25
2019-02-06T08:18:35.926Z,13.27
2019-02-06T08:21:08.576Z,17.90
2019-02-06T08:24:22.756Z,17.83
2019-02-06T08:26:52.903Z,14.50
2019-02-06T08:29:57.129Z,18.20
2019-02-06T08:32:30.663Z,20.25
2019-02-06T08:35:25.947Z,21.30
2019-02-06T08:37:56.055Z,15.67
2019-02-06T08:40:30.818Z,16.50
2019-02-06T08:43:50.961Z,12.60
2019-02-06T08:46:21.206Z,15.70
2019-02-06T08:49:29.586Z,14.40
2019-02-06T08:52:04.005Z,16.75
2019-02-06T08:55:01.542Z,15.50
2019-02-06T08:57:30.643Z,17.90
2019-02-06T09:00:47.878Z,17.93
2019-02-06T09:03:16.922Z,13.23
2019-02-06T09:06:29.297Z,13.03
2019-02-06T09:09:02.053Z,16.37
2019-02-06T09:14:43.806Z,15.43
2019-02-06T09:17:46.560Z,14.03
2019-02-06T09:20:17.242Z,13.80
2019-02-06T09:23:14.627Z,14.87
2019-02-06T09:25:50.741Z,13.80
2019-02-06T09:28:53.904Z,17.57
2019-02-06T09:31:26.681Z,13.73
2019-02-06T09:34:48.592Z,15.03
2019-02-06T09:37:21.840Z,15.13
2019-02-06T09:40:10.540Z,15.37
2019-02-06T09:42:43.033Z,18.17
2019-02-06T09:46:04.090Z,14.57
2019-02-06T09:48:36.901Z,13.87
2019-02-06T09:51:40.205Z,13.33
2019-02-06T09:54:13.836Z,14.23
2019-02-06T09:59:55.689Z,14.87
2019-02-06T10:03:10.180Z,13.97
2019-02-06T10:05:42.037Z,13.30
2019-02-06T10:08:44.829Z,19.00
2019-02-06T10:11:13.980Z,13.47
2019-02-06T10:14:28.345Z,12.13
2019-02-06T10:17:04.085Z,15.43
2019-02-06T10:20:16.590Z,13.73
2019-02-06T10:22:45.720Z,15.23
2019-02-06T10:25:57.911Z,12.53
2019-02-06T10:28:28.312Z,13.90
2019-02-06T10:31:33.692Z,12.70
2019-02-06T10:34:03.078Z,13.67
2019-02-06T10:37:03.940Z,16.27
2019-02-06T10:39:34.844Z,13.77
2019-02-06T10:42:07.874Z,16.13
2019-02-06T10:44:54.438Z,12.57
2019-02-06T10:47:26.866Z,14.27
2019-02-06T10:50:43.928Z,13.57
2019-02-06T10:53:14.709Z,16.10
2019-02-06T10:56:20.616Z,14.97
2019-02-06T10:58:49.019Z,16.80
2019-02-06T11:04:33.357Z,15.27
2019-02-06T11:07:35.983Z,12.53
2019-02-06T11:10:07.088Z,12.17
2019-02-06T11:13:12.419Z,13.43
2019-02-06T11:15:43.358Z,10.70
2019-02-06T11:18:53.300Z,11.93
2019-02-06T11:21:26.263Z,11.53
2019-02-06T11:24:30.033Z,11.03
2019-02-06T11:27:00.039Z,10.40
2019-02-06T11:29:31.423Z,10.20
2019-02-06T11:32:04.360Z,9.47
2019-02-06T11:34:35.615Z,10.13
2019-02-06T11:37:07.942Z,8.13
2019-02-06T11:39:42.622Z,9.87
2019-02-06T11:45:01.553Z,7.90
2019-02-06T11:47:30.846Z,9.33
2019-02-06T11:50:10.092Z,7.20
2019-02-06T11:52:41.424Z,8.17
2019-02-06T11:55:51.874Z,12.93
2019-02-06T11:58:20.270Z,8.60
2019-02-06T12:01:26.966Z,8.40
2019-02-06T12:03:56.214Z,11.47
2019-02-06T12:07:10.363Z,9.57
2019-02-06T12:09:39.999Z,10.37
2019-02-06T12:12:38.811Z,8.43
2019-02-06T12:15:10.009Z,7.30
2019-02-06T12:18:14.328Z,8.40
2019-02-06T12:20:44.722Z,8.30
2019-02-06T12:23:37.215Z,8.07
2019-02-06T12:26:05.673Z,9.27
2019-02-06T12:29:24.863Z,8.07
2019-02-06T12:31:58.909Z,8.23
2019-02-06T12:35:06.493Z,10.27
2019-02-06T12:37:54.981Z,8.43
2019-02-06T12:40:34.587Z,7.53
2019-02-06T12:43:05.474Z,8.53
2019-02-06T12:46:11.274Z,10.27
2019-02-06T12:48:47.505Z,10.03
2019-02-06T12:52:02.556Z,11.27
2019-02-06T12:54:33.791Z,11.00
2019-02-06T12:57:44.667Z,7.57
2019-02-06T13:00:25.564Z,12.67
2019-02-06T13:06:07.079Z,10.50
2019-02-06T13:11:54.411Z,9.63
2019-02-06T13:15:18.022Z,11.87
2019-02-06T13:17:45.561Z,10.03
2019-02-06T13:23:50.242Z,12.30
2019-02-06T13:27:05.403Z,11.23
2019-02-06T13:29:45.849Z,11.03
2019-02-06T13:33:06.943Z,9.30
2019-02-06T13:35:59.428Z,12.17
2019-02-06T13:39:15.624Z,11.90
2019-02-06T13:41:50.522Z,10.93
2019-02-06T13:47:38.929Z,9.43
2019-02-06T13:50:43.529Z,9.57
2019-02-06T13:53:14.422Z,11.23
2019-02-06T13:56:39.519Z,10.53
2019-02-06T13:59:10.771Z,15.97
2019-02-06T14:02:22.369Z,10.10
2019-02-06T14:04:53.617Z,11.97
2019-02-06T14:08:00.964Z,10.97
2019-02-06T14:10:38.092Z,13.43
2019-02-06T14:13:40.848Z,12.23
2019-02-06T14:16:13.242Z,10.13
2019-02-06T14:19:23.995Z,18.90
2019-02-06T14:21:54.444Z,9.63
2019-02-06T14:25:25.853Z,14.43
2019-02-06T14:27:54.447Z,9.57
2019-02-06T14:30:38.305Z,9.57
2019-02-06T14:33:13.944Z,12.37
2019-02-06T14:36:18.855Z,11.07
2019-02-06T14:38:57.931Z,9.57
2019-02-06T14:44:41.614Z,9.33
2019-02-06T14:50:24.990Z,11.73
2019-02-06T14:53:37.285Z,9.20
2019-02-06T14:56:13.863Z,9.53
2019-02-06T15:02:15.390Z,9.30
2019-02-06T15:04:46.848Z,11.83
2019-02-06T15:07:52.000Z,10.17
2019-02-06T15:10:31.662Z,9.30
2019-02-06T15:16:18.258Z,8.77
2019-02-06T15:19:26.583Z,10.47
2019-02-06T15:21:59.914Z,9.43
2019-02-06T15:25:11.266Z,7.80
2019-02-06T15:27:47.048Z,9.53
2019-02-06T15:31:07.059Z,8.73
2019-02-06T15:33:55.654Z,8.07
2019-02-06T15:37:05.240Z,8.40
2019-02-06T15:39:41.291Z,9.83
2019-02-06T15:42:17.652Z,7.53
2019-02-06T15:44:51.579Z,8.43
2019-02-06T15:47:24.673Z,8.20
2019-02-06T15:49:57.028Z,8.67
2019-02-06T15:52:38.632Z,11.10
2019-02-06T15:55:27.279Z,8.40
2019-02-06T15:57:57.831Z,8.77
2019-02-06T16:01:09.490Z,10.37
2019-02-06T16:03:56.316Z,9.40
2019-02-06T16:09:53.344Z,11.50
2019-02-06T16:12:55.503Z,11.90
2019-02-06T16:15:31.066Z,9.37
2019-02-06T16:21:14.907Z,11.30
2019-02-06T16:27:13.882Z,10.23
2019-02-06T16:30:30.959Z,10.57
2019-02-06T16:33:17.142Z,11.77
2019-02-06T16:36:18.768Z,12.17
2019-02-06T16:38:52.757Z,11.73
2019-02-06T16:41:22.739Z,9.87
2019-02-06T16:44:40.606Z,11.40
2019-02-06T16:47:13.397Z,12.77
2019-02-06T16:53:00.197Z,10.87
2019-02-06T16:56:05.074Z,13.07
2019-02-06T16:58:56.039Z,12.87
2019-02-06T17:02:03.890Z,15.43
2019-02-06T17:04:34.111Z,12.83
2019-02-06T17:07:45.057Z,12.67
2019-02-06T17:10:19.349Z,13.40
2019-02-06T17:13:37.118Z,12.87
2019-02-06T17:16:16.248Z,13.43
2019-02-06T17:19:02.868Z,11.67
2019-02-06T17:24:46.584Z,10.73
2019-02-06T17:27:27.035Z,11.93
2019-02-06T17:29:57.832Z,12.77
2019-02-06T17:32:33.859Z,11.50
2019-02-06T17:35:08.151Z,13.77
2019-02-06T17:41:05.571Z,13.30
2019-02-06T17:44:03.689Z,13.37
2019-02-06T17:46:42.007Z,14.27
2019-02-06T17:49:44.352Z,14.37
2019-02-06T17:52:37.670Z,12.27
2019-02-06T17:58:35.967Z,14.83
2019-02-06T18:04:23.955Z,10.30
2019-02-06T18:10:19.520Z,11.30
2019-02-06T18:13:36.380Z,9.60
2019-02-06T18:16:07.861Z,13.53
2019-02-06T18:22:00.247Z,10.70
2019-02-06T18:24:58.412Z,11.47
2019-02-06T18:27:27.811Z,16.20
2019-02-06T18:30:34.379Z,16.03
2019-02-06T18:33:02.748Z,14.80
2019-02-06T18:36:13.418Z,14.00
2019-02-06T18:38:46.620Z,14.57
2019-02-06T18:41:45.298Z,15.37
2019-02-06T18:44:18.304Z,16.37
2019-02-06T18:46:47.682Z,17.37
2019-02-06T18:49:54.037Z,16.03
2019-02-06T18:52:27.619Z,16.87
2019-02-06T18:55:47.501Z,15.17
2019-02-06T18:58:18.088Z,17.17
2019-02-06T19:04:05.442Z,16.60
2019-02-06T19:07:18.267Z,19.17
2019-02-06T19:09:50.748Z,17.10
2019-02-06T19:12:56.078Z,17.37
2019-02-06T19:15:26.355Z,19.77
2019-02-06T19:21:10.327Z,18.90
2019-02-06T19:24:22.523Z,16.67
2019-02-06T19:26:52.809Z,20.73
2019-02-06T19:30:05.653Z,19.47
2019-02-06T19:32:36.568Z,20.70
2019-02-06T19:35:41.919Z,19.63
2019-02-06T19:38:18.649Z,19.67
2019-02-06T19:41:44.603Z,21.27
2019-02-06T19:44:13.255Z,21.50
2019-02-06T19:46:45.048Z,24.93
2019-02-06T19:49:15.041Z,23.53
2019-02-06T19:52:23.157Z,24.03
2019-02-06T19:54:52.426Z,20.23
2019-02-06T19:57:49.879Z,24.90
2019-02-06T20:00:36.190Z,23.03
2019-02-06T20:03:34.103Z,23.27
2019-02-06T20:06:05.476Z,21.07
2019-02-06T20:09:17.887Z,19.90
2019-02-06T20:11:47.536Z,22.77
2019-02-06T20:17:35.328Z,23.97
2019-02-06T20:20:36.636Z,21.27
2019-02-06T20:23:06.198Z,23.13
2019-02-06T20:26:08.025Z,21.00
2019-02-06T20:28:40.763Z,21.27
2019-02-06T20:34:31.141Z,22.70
2019-02-06T20:37:30.118Z,24.03
2019-02-06T20:40:09.658Z,24.37
2019-02-06T20:42:38.247Z,22.70
2019-02-06T20:45:33.999Z,21.60
2019-02-06T20:48:03.420Z,21.30
2019-02-06T20:51:07.796Z,24.90
2019-02-06T20:53:40.437Z,26.20
2019-02-06T20:56:50.821Z,23.43
2019-02-06T20:59:19.703Z,21.87
2019-02-06T21:01:48.109Z,22.33
2019-02-06T21:04:23.538Z,23.43
2019-02-06T21:06:52.299Z,22.17
2019-02-06T21:10:18.098Z,22.83
2019-02-06T21:12:34.329Z,25.90
2019-02-06T21:17:51.186Z,27.33
2019-02-06T21:20:21.146Z,25.57
2019-02-06T21:23:22.823Z,20.03
2019-02-06T21:25:53.852Z,23.47
2019-02-06T21:28:23.192Z,23.23
2019-02-06T21:31:00.798Z,20.00
2019-02-06T21:33:29.350Z,27.20
2019-02-06T21:36:31.211Z,24.57
2019-02-06T21:38:59.735Z,23.50
2019-02-06T21:41:31.323Z,23.10
2019-02-06T21:44:00.407Z,20.23
2019-02-06T21:52:54.079Z,24.37
2019-02-06T21:55:23.224Z,24.27
2019-02-06T21:57:51.714Z,20.33
2019-02-06T22:00:24.524Z,22.10
2019-02-06T22:03:28.757Z,23.57
2019-02-06T22:05:58.874Z,21.93
2019-02-06T22:08:32.566Z,20.10
2019-02-06T22:11:32.929Z,16.33
2019-02-06T22:14:11.416Z,20.50
2019-02-06T22:16:43.329Z,19.83
2019-02-06T22:19:19.069Z,20.30
2019-02-06T22:21:51.765Z,18.53
2019-02-06T22:27:35.468Z,18.37
2019-02-06T22:30:07.031Z,22.33
2019-02-06T22:33:15.133Z,19.83
2019-02-06T22:35:43.556Z,20.27
2019-02-06T22:38:12.023Z,19.60
2019-02-06T22:40:47.753Z,22.67
2019-02-06T22:43:16.113Z,21.57
2019-02-06T22:45:44.896Z,19.17
2019-02-06T22:48:30.909Z,17.80
2019-02-06T22:50:59.639Z,18.57
2019-02-06T22:56:36.842Z,18.60
2019-02-06T22:59:08.320Z,18.93
2019-02-06T23:02:16.107Z,19.37
2019-02-06T23:04:45.360Z,20.90
2019-02-06T23:07:13.734Z,18.47
2019-02-06T23:09:51.129Z,17.53
2019-02-06T23:12:19.588Z,22.27
2019-02-06T23:15:21.693Z,18.67
2019-02-06T23:17:51.676Z,21.73
2019-02-06T23:20:20.123Z,19.30
2019-02-06T23:23:42.923Z,22.03
2019-02-06T23:26:11.327Z,22.30
2019-02-06T23:28:40.471Z,23.17
2019-02-06T23:31:15.862Z,23.03
2019-02-06T23:33:50.261Z,30.33
2019-02-06T23:39:15.037Z,23.57
2019-02-06T23:44:39.319Z,28.30
2019-02-06T23:47:06.682Z,19.97
2019-02-06T23:49:40.562Z,25.00
2019-02-06T23:52:15.075Z,21.70
2019-02-06T23:55:33.684Z,21.17
2019-02-06T23:58:09.389Z,18.70
